sensor_id;sensor_type;location;lat;lon;timestamp;pressure;altitude;pressure_sealevel;temperature;humidity
29839;BME280;18669;53.356;-1.464;2023-03-01T00:01:05;102577.84;;;6.85;100.00
29839;BME280;18669;53.356;-1.464;2023-03-01T00:03:31;102576.41;;;6.96;100.00
29839;BME280;18669;53.356;-1.464;2023-03-01T00:05:57;102578.03;;;6.93;100.00
29839;BME280;18669;53.356;-1.464;2023-03-01T00:08:23;102577.25;;;6.95;100.00
29839;BME280;18669;53.356;-1.464;2023-03-01T00:10:49;102576.50;;;6.99;100.00
29839;BME280;18669;53.356;-1.464;2023-03-01T00:13:15;102579.28;;;7.06;100.00
29839;BME280;18669;53.356;-1.464;2023-03-01T00:15:41;102568.75;;;7.04;100.00
29839;BME280;18669;53.356;-1.464;2023-03-01T00:18:07;102572.22;;;7.03;100.00
29839;BME280;18669;53.356;-1.464;2023-03-01T00:20:34;102571.97;;;6.94;100.00
29839;BME280;18669;53.356;-1.464;2023-03-01T00:22:59;102571.19;;;6.96;100.00
29839;BME280;18669;53.356;-1.464;2023-03-01T00:25:25;102566.53;;;6.84;100.00
29839;BME280;18669;53.356;-1.464;2023-03-01T00:27:51;102563.16;;;6.89;100.00
29839;BME280;18669;53.356;-1.464;2023-03-01T00:30:17;102564.00;;;6.88;100.00
29839;BME280;18669;53.356;-1.464;2023-03-01T00:32:43;102562.06;;;6.80;100.00
29839;BME280;18669;53.356;-1.464;2023-03-01T00:35:08;102569.25;;;6.89;100.00
29839;BME280;18669;53.356;-1.464;2023-03-01T00:37:34;102572.22;;;6.69;100.00
29839;BME280;18669;53.356;-1.464;2023-03-01T00:40:00;102565.44;;;6.76;100.00
29839;BME280;18669;53.356;-1.464;2023-03-01T00:42:26;102563.75;;;6.78;100.00
29839;BME280;18669;53.356;-1.464;2023-03-01T00:44:51;102565.59;;;6.82;100.00
29839;BME280;18669;53.356;-1.464;2023-03-01T00:47:17;102563.84;;;6.83;100.00
29839;BME280;18669;53.356;-1.464;2023-03-01T00:49:43;102562.06;;;6.82;100.00
29839;BME280;18669;53.356;-1.464;2023-03-01T00:52:09;102561.22;;;6.83;100.00
29839;BME280;18669;53.356;-1.464;2023-03-01T00:54:34;102563.28;;;6.95;100.00
29839;BME280;18669;53.356;-1.464;2023-03-01T00:57:00;102571.00;;;6.89;100.00
29839;BME280;18669;53.356;-1.464;2023-03-01T00:59:26;102562.91;;;6.81;100.00
29839;BME280;18669;53.356;-1.464;2023-03-01T01:01:52;102561.06;;;6.77;100.00
29839;BME280;18669;53.356;-1.464;2023-03-01T01:04:17;102568.91;;;6.77;100.00
29839;BME280;18669;53.356;-1.464;2023-03-01T01:06:44;102563.56;;;6.72;100.00
29839;BME280;18669;53.356;-1.464;2023-03-01T01:09:11;102559.16;;;6.69;100.00
29839;BME280;18669;53.356;-1.464;2023-03-01T01:11:44;102559.00;;;6.65;100.00
29839;BME280;18669;53.356;-1.464;2023-03-01T01:14:10;102554.78;;;6.68;100.00
29839;BME280;18669;53.356;-1.464;2023-03-01T01:16:36;102559.84;;;6.64;100.00
29839;BME280;18669;53.356;-1.464;2023-03-01T01:19:21;102550.25;;;6.63;100.00
29839;BME280;18669;53.356;-1.464;2023-03-01T01:21:47;102552.81;;;6.61;100.00
29839;BME280;18669;53.356;-1.464;2023-03-01T01:24:13;102543.38;;;6.66;100.00
29839;BME280;18669;53.356;-1.464;2023-03-01T01:26:39;102546.59;;;6.56;100.00
29839;BME280;18669;53.356;-1.464;2023-03-01T01:29:05;102536.91;;;6.53;100.00
29839;BME280;18669;53.356;-1.464;2023-03-01T01:31:31;102538.84;;;6.61;100.00
29839;BME280;18669;53.356;-1.464;2023-03-01T01:33:58;102534.38;;;6.56;100.00
29839;BME280;18669;53.356;-1.464;2023-03-01T01:36:24;102523.22;;;6.62;100.00
29839;BME280;18669;53.356;-1.464;2023-03-01T01:38:50;102527.59;;;6.63;100.00
29839;BME280;18669;53.356;-1.464;2023-03-01T01:41:16;102526.84;;;6.67;100.00
29839;BME280;18669;53.356;-1.464;2023-03-01T01:49:05;102518.19;;;6.71;100.00
29839;BME280;18669;53.356;-1.464;2023-03-01T01:51:35;102517.41;;;6.74;100.00
29839;BME280;18669;53.356;-1.464;2023-03-01T01:54:14;102514.59;;;6.66;100.00
29839;BME280;18669;53.356;-1.464;2023-03-01T01:56:43;102510.41;;;6.73;100.00
29839;BME280;18669;53.356;-1.464;2023-03-01T01:59:09;102506.88;;;6.71;100.00
29839;BME280;18669;53.356;-1.464;2023-03-01T02:01:36;102506.03;;;6.72;100.00
29839;BME280;18669;53.356;-1.464;2023-03-01T02:04:02;102500.91;;;6.77;100.00
29839;BME280;18669;53.356;-1.464;2023-03-01T02:06:30;102501.81;;;6.77;100.00
29839;BME280;18669;53.356;-1.464;2023-03-01T02:09:00;102495.59;;;6.74;100.00
29839;BME280;18669;53.356;-1.464;2023-03-01T02:11:27;102493.81;;;6.72;100.00
29839;BME280;18669;53.356;-1.464;2023-03-01T02:13:54;102489.25;;;6.64;100.00
29839;BME280;18669;53.356;-1.464;2023-03-01T02:16:20;102482.28;;;6.64;100.00
29839;BME280;18669;53.356;-1.464;2023-03-01T02:18:46;102477.06;;;6.64;100.00
29839;BME280;18669;53.356;-1.464;2023-03-01T02:23:41;102468.28;;;6.62;100.00
29839;BME280;18669;53.356;-1.464;2023-03-01T02:28:37;102474.63;;;6.72;100.00
29839;BME280;18669;53.356;-1.464;2023-03-01T02:31:07;102471.19;;;6.75;100.00
29839;BME280;18669;53.356;-1.464;2023-03-01T02:33:52;102461.53;;;6.70;100.00
29839;BME280;18669;53.356;-1.464;2023-03-01T02:36:25;102469.22;;;6.64;100.00
29839;BME280;18669;53.356;-1.464;2023-03-01T02:38:53;102458.53;;;6.56;100.00
29839;BME280;18669;53.356;-1.464;2023-03-01T02:41:21;102460.22;;;6.54;100.00
29839;BME280;18669;53.356;-1.464;2023-03-01T02:43:47;102462.06;;;6.59;100.00
29839;BME280;18669;53.356;-1.464;2023-03-01T02:46:23;102451.59;;;6.57;100.00
29839;BME280;18669;53.356;-1.464;2023-03-01T02:48:50;102452.53;;;6.59;100.00
29839;BME280;18669;53.356;-1.464;2023-03-01T02:56:39;102448.97;;;6.57;100.00
29839;BME280;18669;53.356;-1.464;2023-03-01T02:59:04;102446.38;;;6.59;100.00
29839;BME280;18669;53.356;-1.464;2023-03-01T03:01:30;102441.22;;;6.60;100.00
29839;BME280;18669;53.356;-1.464;2023-03-01T03:04:11;102446.38;;;6.59;100.00
29839;BME280;18669;53.356;-1.464;2023-03-01T03:06:43;102442.97;;;6.61;100.00
29839;BME280;18669;53.356;-1.464;2023-03-01T03:09:08;102442.13;;;6.62;100.00
29839;BME280;18669;53.356;-1.464;2023-03-01T03:11:34;102434.47;;;6.70;100.00
29839;BME280;18669;53.356;-1.464;2023-03-01T03:14:02;102439.53;;;6.64;100.00
29839;BME280;18669;53.356;-1.464;2023-03-01T03:16:28;102439.59;;;6.65;100.00
29839;BME280;18669;53.356;-1.464;2023-03-01T03:18:55;102442.25;;;6.67;100.00
29839;BME280;18669;53.356;-1.464;2023-03-01T03:21:31;102441.41;;;6.68;100.00
29839;BME280;18669;53.356;-1.464;2023-03-01T03:23:57;102435.25;;;6.66;100.00
29839;BME280;18669;53.356;-1.464;2023-03-01T03:26:23;102440.47;;;6.66;100.00
29839;BME280;18669;53.356;-1.464;2023-03-01T03:28:49;102447.53;;;6.68;100.00
29839;BME280;18669;53.356;-1.464;2023-03-01T03:31:14;102448.41;;;6.69;100.00
29839;BME280;18669;53.356;-1.464;2023-03-01T03:33:40;102450.16;;;6.70;100.00
29839;BME280;18669;53.356;-1.464;2023-03-01T03:36:06;102439.72;;;6.70;100.00
29839;BME280;18669;53.356;-1.464;2023-03-01T03:38:32;102437.00;;;6.67;100.00
29839;BME280;18669;53.356;-1.464;2023-03-01T03:41:02;102434.47;;;6.70;100.00
29839;BME280;18669;53.356;-1.464;2023-03-01T03:43:29;102429.22;;;6.68;100.00
29839;BME280;18669;53.356;-1.464;2023-03-01T03:45:55;102428.06;;;6.57;100.00
29839;BME280;18669;53.356;-1.464;2023-03-01T03:48:22;102427.31;;;6.63;100.00
29839;BME280;18669;53.356;-1.464;2023-03-01T03:50:49;102421.09;;;6.57;100.00
29839;BME280;18669;53.356;-1.464;2023-03-01T03:53:15;102421.97;;;6.58;100.00
29839;BME280;18669;53.356;-1.464;2023-03-01T03:55:41;102415.47;;;6.42;100.00
29839;BME280;18669;53.356;-1.464;2023-03-01T03:58:08;102416.50;;;6.49;100.00
29839;BME280;18669;53.356;-1.464;2023-03-01T04:00:35;102410.63;;;6.57;100.00
29839;BME280;18669;53.356;-1.464;2023-03-01T04:03:01;102412.13;;;6.48;100.00
29839;BME280;18669;53.356;-1.464;2023-03-01T04:05:28;102404.25;;;6.46;100.00
29839;BME280;18669;53.356;-1.464;2023-03-01T04:07:54;102401.59;;;6.45;100.00
29839;BME280;18669;53.356;-1.464;2023-03-01T04:10:33;102401.06;;;6.58;100.00
29839;BME280;18669;53.356;-1.464;2023-03-01T04:12:59;102402.69;;;6.54;100.00
29839;BME280;18669;53.356;-1.464;2023-03-01T04:15:26;102403.63;;;6.56;100.00
29839;BME280;18669;53.356;-1.464;2023-03-01T04:17:52;102400.06;;;6.53;100.00
29839;BME280;18669;53.356;-1.464;2023-03-01T04:20:20;102401.84;;;6.55;100.00
29839;BME280;18669;53.356;-1.464;2023-03-01T04:25:17;102400.94;;;6.53;100.00
29839;BME280;18669;53.356;-1.464;2023-03-01T04:27:43;102393.97;;;6.52;100.00
29839;BME280;18669;53.356;-1.464;2023-03-01T04:30:09;102389.69;;;6.56;100.00
29839;BME280;18669;53.356;-1.464;2023-03-01T04:32:35;102386.81;;;6.47;100.00
29839;BME280;18669;53.356;-1.464;2023-03-01T04:35:01;102392.88;;;6.44;100.00
29839;BME280;18669;53.356;-1.464;2023-03-01T04:37:27;102393.97;;;6.52;100.00
29839;BME280;18669;53.356;-1.464;2023-03-01T04:39:52;102388.72;;;6.52;100.00
29839;BME280;18669;53.356;-1.464;2023-03-01T04:42:18;102381.78;;;6.54;100.00
29839;BME280;18669;53.356;-1.464;2023-03-01T04:44:44;102385.38;;;6.58;100.00
29839;BME280;18669;53.356;-1.464;2023-03-01T04:47:10;102387.13;;;6.59;100.00
29839;BME280;18669;53.356;-1.464;2023-03-01T04:49:36;102379.91;;;6.49;100.00
29839;BME280;18669;53.356;-1.464;2023-03-01T04:52:02;102387.00;;;6.54;100.00
29839;BME280;18669;53.356;-1.464;2023-03-01T04:54:28;102388.00;;;6.60;100.00
29839;BME280;18669;53.356;-1.464;2023-03-01T04:56:54;102386.31;;;6.62;100.00
29839;BME280;18669;53.356;-1.464;2023-03-01T04:59:20;102383.84;;;6.66;100.00
29839;BME280;18669;53.356;-1.464;2023-03-01T05:01:49;102375.69;;;6.55;100.00
29839;BME280;18669;53.356;-1.464;2023-03-01T05:04:15;102368.91;;;6.62;100.00
29839;BME280;18669;53.356;-1.464;2023-03-01T05:06:41;102373.31;;;6.65;100.00
29839;BME280;18669;53.356;-1.464;2023-03-01T05:09:07;102371.28;;;6.53;100.00
29839;BME280;18669;53.356;-1.464;2023-03-01T05:11:33;102360.00;;;6.55;100.00
29839;BME280;18669;53.356;-1.464;2023-03-01T05:14:01;102375.53;;;6.48;100.00
29839;BME280;18669;53.356;-1.464;2023-03-01T05:16:27;102370.34;;;6.49;100.00
29839;BME280;18669;53.356;-1.464;2023-03-01T05:18:53;102376.44;;;6.48;100.00
29839;BME280;18669;53.356;-1.464;2023-03-01T05:21:21;102365.81;;;6.42;100.00
29839;BME280;18669;53.356;-1.464;2023-03-01T05:23:46;102364.13;;;6.44;100.00
29839;BME280;18669;53.356;-1.464;2023-03-01T05:26:13;102369.53;;;6.52;100.00
29839;BME280;18669;53.356;-1.464;2023-03-01T05:28:39;102368.66;;;6.51;100.00
29839;BME280;18669;53.356;-1.464;2023-03-01T05:31:05;102369.53;;;6.53;100.00
29839;BME280;18669;53.356;-1.464;2023-03-01T05:33:35;102363.53;;;6.57;100.00
29839;BME280;18669;53.356;-1.464;2023-03-01T05:36:01;102360.09;;;6.59;100.00
29839;BME280;18669;53.356;-1.464;2023-03-01T05:38:27;102371.22;;;6.50;100.00
29839;BME280;18669;53.356;-1.464;2023-03-01T05:40:53;102357.22;;;6.48;100.00
29839;BME280;18669;53.356;-1.464;2023-03-01T05:43:19;102372.06;;;6.49;100.00
29839;BME280;18669;53.356;-1.464;2023-03-01T05:45:44;102362.38;;;6.45;100.00
29839;BME280;18669;53.356;-1.464;2023-03-01T05:48:11;102363.34;;;6.48;100.00
29839;BME280;18669;53.356;-1.464;2023-03-01T05:50:38;102351.22;;;6.52;100.00
29839;BME280;18669;53.356;-1.464;2023-03-01T05:53:06;102360.44;;;6.37;100.00
29839;BME280;18669;53.356;-1.464;2023-03-01T05:55:33;102360.50;;;6.39;100.00
29839;BME280;18669;53.356;-1.464;2023-03-01T05:58:00;102364.72;;;6.34;100.00
29839;BME280;18669;53.356;-1.464;2023-03-01T06:00:26;102360.25;;;6.28;100.00
29839;BME280;18669;53.356;-1.464;2023-03-01T06:02:53;102360.31;;;6.31;100.00
29839;BME280;18669;53.356;-1.464;2023-03-01T06:05:19;102361.88;;;6.24;100.00
29839;BME280;18669;53.356;-1.464;2023-03-01T06:07:45;102355.53;;;6.15;100.00
29839;BME280;18669;53.356;-1.464;2023-03-01T06:10:11;102358.22;;;6.16;100.00
29839;BME280;18669;53.356;-1.464;2023-03-01T06:12:38;102368.75;;;6.21;100.00
29839;BME280;18669;53.356;-1.464;2023-03-01T06:15:05;102359.22;;;6.23;100.00
29839;BME280;18669;53.356;-1.464;2023-03-01T06:17:32;102353.28;;;6.29;100.00
29839;BME280;18669;53.356;-1.464;2023-03-01T06:20:05;102354.34;;;6.37;100.00
29839;BME280;18669;53.356;-1.464;2023-03-01T06:22:32;102366.09;;;6.19;100.00
29839;BME280;18669;53.356;-1.464;2023-03-01T06:24:58;102363.25;;;6.10;100.00
29839;BME280;18669;53.356;-1.464;2023-03-01T06:27:23;102371.22;;;6.15;100.00
29839;BME280;18669;53.356;-1.464;2023-03-01T06:29:49;102359.06;;;6.17;100.00
29839;BME280;18669;53.356;-1.464;2023-03-01T06:32:15;102367.84;;;6.19;100.00
29839;BME280;18669;53.356;-1.464;2023-03-01T06:34:41;102364.06;;;6.07;100.00
29839;BME280;18669;53.356;-1.464;2023-03-01T06:37:07;102366.03;;;6.16;100.00
29839;BME280;18669;53.356;-1.464;2023-03-01T06:39:33;102368.84;;;6.24;100.00
29839;BME280;18669;53.356;-1.464;2023-03-01T06:41:59;102373.91;;;6.18;100.00
29839;BME280;18669;53.356;-1.464;2023-03-01T06:44:25;102378.38;;;6.22;100.00
29839;BME280;18669;53.356;-1.464;2023-03-01T06:46:51;102362.53;;;6.16;100.00
29839;BME280;18669;53.356;-1.464;2023-03-01T06:49:17;102374.84;;;6.21;100.00
29839;BME280;18669;53.356;-1.464;2023-03-01T06:51:43;102367.19;;;6.27;100.00
29839;BME280;18669;53.356;-1.464;2023-03-01T06:54:10;102367.19;;;6.27;100.00
29839;BME280;18669;53.356;-1.464;2023-03-01T06:56:36;102362.09;;;6.32;100.00
29839;BME280;18669;53.356;-1.464;2023-03-01T06:59:01;102364.69;;;6.32;100.00
29839;BME280;18669;53.356;-1.464;2023-03-01T07:01:28;102365.47;;;6.28;100.00
29839;BME280;18669;53.356;-1.464;2023-03-01T07:03:54;102369.69;;;6.23;100.00
29839;BME280;18669;53.356;-1.464;2023-03-01T07:06:20;102363.78;;;6.30;100.00
29839;BME280;18669;53.356;-1.464;2023-03-01T07:08:46;102373.25;;;6.26;100.00
29839;BME280;18669;53.356;-1.464;2023-03-01T07:11:12;102369.94;;;6.32;100.00
29839;BME280;18669;53.356;-1.464;2023-03-01T07:13:38;102366.31;;;6.27;100.00
29839;BME280;18669;53.356;-1.464;2023-03-01T07:16:04;102364.31;;;6.18;100.00
29839;BME280;18669;53.356;-1.464;2023-03-01T07:18:31;102364.53;;;6.26;100.00
29839;BME280;18669;53.356;-1.464;2023-03-01T07:20:56;102364.50;;;6.24;100.00
29839;BME280;18669;53.356;-1.464;2023-03-01T07:23:22;102361.72;;;6.18;100.00
29839;BME280;18669;53.356;-1.464;2023-03-01T07:25:52;102360.94;;;6.22;100.00
29839;BME280;18669;53.356;-1.464;2023-03-01T07:28:18;102368.78;;;6.22;100.00
29839;BME280;18669;53.356;-1.464;2023-03-01T07:30:44;102373.94;;;6.19;100.00
29839;BME280;18669;53.356;-1.464;2023-03-01T07:33:10;102369.84;;;6.29;100.00
29839;BME280;18669;53.356;-1.464;2023-03-01T07:35:36;102367.31;;;6.32;100.00
29839;BME280;18669;53.356;-1.464;2023-03-01T07:38:02;102364.63;;;6.29;100.00
29839;BME280;18669;53.356;-1.464;2023-03-01T07:40:27;102372.53;;;6.32;100.00
29839;BME280;18669;53.356;-1.464;2023-03-01T07:42:56;102360.44;;;6.37;100.00
29839;BME280;18669;53.356;-1.464;2023-03-01T07:45:23;102365.75;;;6.40;100.00
29839;BME280;18669;53.356;-1.464;2023-03-01T07:47:51;102366.34;;;6.29;100.00
29839;BME280;18669;53.356;-1.464;2023-03-01T07:50:16;102359.56;;;6.35;100.00
29839;BME280;18669;53.356;-1.464;2023-03-01T07:52:44;102359.41;;;6.31;100.00
29839;BME280;18669;53.356;-1.464;2023-03-01T07:55:10;102366.41;;;6.32;100.00
29839;BME280;18669;53.356;-1.464;2023-03-01T07:57:36;102365.66;;;6.37;100.00
29839;BME280;18669;53.356;-1.464;2023-03-01T08:00:02;102361.25;;;6.33;100.00
29839;BME280;18669;53.356;-1.464;2023-03-01T08:02:28;102354.44;;;6.40;100.00
29839;BME280;18669;53.356;-1.464;2023-03-01T08:04:53;102354.44;;;6.41;100.00
29839;BME280;18669;53.356;-1.464;2023-03-01T08:07:19;102351.81;;;6.40;100.00
29839;BME280;18669;53.356;-1.464;2023-03-01T08:09:45;102351.72;;;6.37;100.00
29839;BME280;18669;53.356;-1.464;2023-03-01T08:12:11;102359.69;;;6.41;100.00
29839;BME280;18669;53.356;-1.464;2023-03-01T08:14:36;102361.59;;;6.47;100.00
29839;BME280;18669;53.356;-1.464;2023-03-01T08:17:03;102371.28;;;6.51;100.00
29839;BME280;18669;53.356;-1.464;2023-03-01T08:19:28;102362.69;;;6.57;100.00
29839;BME280;18669;53.356;-1.464;2023-03-01T08:21:54;102364.47;;;6.60;100.00
29839;BME280;18669;53.356;-1.464;2023-03-01T08:24:23;102366.25;;;6.61;100.00
29839;BME280;18669;53.356;-1.464;2023-03-01T08:26:49;102365.38;;;6.60;100.00
29839;BME280;18669;53.356;-1.464;2023-03-01T08:29:15;102365.44;;;6.63;100.00
29839;BME280;18669;53.356;-1.464;2023-03-01T08:31:41;102369.06;;;6.68;100.00
29839;BME280;18669;53.356;-1.464;2023-03-01T08:34:08;102365.69;;;6.74;100.00
29839;BME280;18669;53.356;-1.464;2023-03-01T08:36:35;102362.31;;;6.80;100.00
29839;BME280;18669;53.356;-1.464;2023-03-01T08:39:02;102362.47;;;6.84;100.00
29839;BME280;18669;53.356;-1.464;2023-03-01T08:41:28;102361.91;;;6.99;100.00
29839;BME280;18669;53.356;-1.464;2023-03-01T08:43:54;102359.38;;;7.04;100.00
29839;BME280;18669;53.356;-1.464;2023-03-01T08:46:25;102352.69;;;7.17;100.00
29839;BME280;18669;53.356;-1.464;2023-03-01T08:48:50;102365.06;;;7.24;100.00
29839;BME280;18669;53.356;-1.464;2023-03-01T08:51:17;102365.25;;;7.34;100.00
29839;BME280;18669;53.356;-1.464;2023-03-01T08:53:43;102365.91;;;7.23;100.00
29839;BME280;18669;53.356;-1.464;2023-03-01T08:56:09;102366.63;;;7.16;100.00
29839;BME280;18669;53.356;-1.464;2023-03-01T08:58:35;102373.59;;;7.15;100.00
29839;BME280;18669;53.356;-1.464;2023-03-01T09:01:06;102373.59;;;7.15;100.00
29839;BME280;18669;53.356;-1.464;2023-03-01T09:03:32;102368.22;;;7.09;100.00
29839;BME280;18669;53.356;-1.464;2023-03-01T09:06:01;102374.31;;;7.08;100.00
29839;BME280;18669;53.356;-1.464;2023-03-01T09:08:27;102369.22;;;7.14;100.00
29839;BME280;18669;53.356;-1.464;2023-03-01T09:10:53;102365.75;;;7.17;100.00
29839;BME280;18669;53.356;-1.464;2023-03-01T09:13:19;102366.69;;;7.19;100.00
29839;BME280;18669;53.356;-1.464;2023-03-01T09:15:44;102372.00;;;7.22;100.00
29839;BME280;18669;53.356;-1.464;2023-03-01T09:18:10;102358.84;;;7.19;100.00
29839;BME280;18669;53.356;-1.464;2023-03-01T09:20:36;102362.41;;;7.23;100.00
29839;BME280;18669;53.356;-1.464;2023-03-01T09:23:02;102368.44;;;7.19;100.00
29839;BME280;18669;53.356;-1.464;2023-03-01T09:25:28;102365.69;;;7.12;100.00
29839;BME280;18669;53.356;-1.464;2023-03-01T09:27:53;102366.59;;;7.14;100.00
29839;BME280;18669;53.356;-1.464;2023-03-01T09:30:20;102373.31;;;7.03;100.00
29839;BME280;18669;53.356;-1.464;2023-03-01T09:32:46;102366.84;;;6.85;100.00
29839;BME280;18669;53.356;-1.464;2023-03-01T09:35:12;102363.41;;;6.88;100.00
29839;BME280;18669;53.356;-1.464;2023-03-01T09:37:38;102357.47;;;6.97;100.00
29839;BME280;18669;53.356;-1.464;2023-03-01T09:40:05;102334.97;;;7.05;100.00
29839;BME280;18669;53.356;-1.464;2023-03-01T09:42:32;102333.78;;;7.30;100.00
29839;BME280;18669;53.356;-1.464;2023-03-01T09:45:06;102324.81;;;7.64;100.00
29839;BME280;18669;53.356;-1.464;2023-03-01T09:47:37;102322.13;;;8.10;100.00
29839;BME280;18669;53.356;-1.464;2023-03-01T09:54:57;102315.22;;;8.69;100.00
29839;BME280;18669;53.356;-1.464;2023-03-01T09:57:35;102300.34;;;8.69;100.00
29839;BME280;18669;53.356;-1.464;2023-03-01T10:02:50;102296.53;;;8.48;100.00
29839;BME280;18669;53.356;-1.464;2023-03-01T10:05:27;102295.41;;;8.32;100.00
29839;BME280;18669;53.356;-1.464;2023-03-01T10:10:43;102295.28;;;8.23;100.00
29839;BME280;18669;53.356;-1.464;2023-03-01T10:15:48;102296.72;;;8.05;100.00
29839;BME280;18669;53.356;-1.464;2023-03-01T10:18:16;102301.84;;;7.99;100.00
29839;BME280;18669;53.356;-1.464;2023-03-01T10:23:13;102299.38;;;8.07;100.00
29839;BME280;18669;53.356;-1.464;2023-03-01T10:28:27;102288.97;;;8.12;100.00
29839;BME280;18669;53.356;-1.464;2023-03-01T10:30:50;102283.72;;;8.12;100.00
29839;BME280;18669;53.356;-1.464;2023-03-01T10:33:20;102282.88;;;8.13;100.00
29839;BME280;18669;53.356;-1.464;2023-03-01T10:35:47;102279.28;;;8.07;100.00
29839;BME280;18669;53.356;-1.464;2023-03-01T10:38:14;102283.13;;;8.28;100.00
29839;BME280;18669;53.356;-1.464;2023-03-01T10:40:59;102276.22;;;8.36;100.00
29839;BME280;18669;53.356;-1.464;2023-03-01T10:43:42;102261.91;;;8.73;100.00
29839;BME280;18669;53.356;-1.464;2023-03-01T10:46:30;102256.16;;;9.02;100.00
29839;BME280;18669;53.356;-1.464;2023-03-01T10:49:07;102259.78;;;9.13;100.00
29839;BME280;18669;53.356;-1.464;2023-03-01T10:51:38;102247.53;;;9.12;100.00
29839;BME280;18669;53.356;-1.464;2023-03-01T10:54:05;102246.34;;;8.87;100.00
29839;BME280;18669;53.356;-1.464;2023-03-01T10:56:35;102248.59;;;8.59;100.00
29839;BME280;18669;53.356;-1.464;2023-03-01T10:59:19;102238.59;;;8.33;100.00
29839;BME280;18669;53.356;-1.464;2023-03-01T11:01:45;102246.25;;;8.19;100.00
29839;BME280;18669;53.356;-1.464;2023-03-01T11:04:12;102248.78;;;8.14;100.00
29839;BME280;18669;53.356;-1.464;2023-03-01T11:06:40;102254.72;;;8.02;100.00
29839;BME280;18669;53.356;-1.464;2023-03-01T11:09:19;102251.13;;;7.96;100.00
29839;BME280;18669;53.356;-1.464;2023-03-01T11:11:46;102245.88;;;7.94;100.00
29839;BME280;18669;53.356;-1.464;2023-03-01T11:14:15;102247.16;;;8.21;100.00
29839;BME280;18669;53.356;-1.464;2023-03-01T11:16:43;102230.06;;;8.46;100.00
29839;BME280;18669;53.356;-1.464;2023-03-01T11:24:14;102226.41;;;9.95;100.00
29839;BME280;18669;53.356;-1.464;2023-03-01T11:26:41;102231.44;;;9.67;100.00
29839;BME280;18669;53.356;-1.464;2023-03-01T11:31:53;102232.72;;;9.16;100.00
29839;BME280;18669;53.356;-1.464;2023-03-01T11:34:29;102221.06;;;8.95;100.00
29839;BME280;18669;53.356;-1.464;2023-03-01T11:37:00;102226.41;;;9.03;100.00
29839;BME280;18669;53.356;-1.464;2023-03-01T11:39:32;102226.28;;;8.92;100.00
29839;BME280;18669;53.356;-1.464;2023-03-01T11:44:30;102224.22;;;8.68;100.00
29839;BME280;18669;53.356;-1.464;2023-03-01T11:47:42;102221.59;;;8.68;100.00
29839;BME280;18669;53.356;-1.464;2023-03-01T11:57:41;102211.63;;;8.42;100.00
29839;BME280;18669;53.356;-1.464;2023-03-01T12:03:04;102203.88;;;8.49;100.00
29839;BME280;18669;53.356;-1.464;2023-03-01T12:08:24;102201.25;;;8.49;100.00
29839;BME280;18669;53.356;-1.464;2023-03-01T12:18:55;102170.88;;;11.16;100.00
29839;BME280;18669;53.356;-1.464;2023-03-01T12:26:52;102163.03;;;11.48;100.00
29839;BME280;18669;53.356;-1.464;2023-03-01T12:47:41;102127.59;;;10.33;100.00
29839;BME280;18669;53.356;-1.464;2023-03-01T12:50:11;102131.84;;;10.03;100.00
29839;BME280;18669;53.356;-1.464;2023-03-01T12:52:57;102126.59;;;10.08;100.00
29839;BME280;18669;53.356;-1.464;2023-03-01T12:55:34;102128.25;;;9.93;100.00
29839;BME280;18669;53.356;-1.464;2023-03-01T13:06:11;102083.63;;;10.04;100.00
29839;BME280;18669;53.356;-1.464;2023-03-01T13:08:46;102084.56;;;10.19;100.00
29839;BME280;18669;53.356;-1.464;2023-03-01T13:11:19;102094.38;;;10.41;100.00
29839;BME280;18669;53.356;-1.464;2023-03-01T13:13:46;102079.56;;;11.07;100.00
29839;BME280;18669;53.356;-1.464;2023-03-01T13:16:21;102058.38;;;11.94;100.00
29839;BME280;18669;53.356;-1.464;2023-03-01T13:18:48;102060.00;;;12.31;92.62
29839;BME280;18669;53.356;-1.464;2023-03-01T13:21:14;102050.47;;;12.02;92.38
29839;BME280;18669;53.356;-1.464;2023-03-01T13:23:54;102040.06;;;11.46;95.88
29839;BME280;18669;53.356;-1.464;2023-03-01T13:26:20;102047.09;;;11.14;100.00
29839;BME280;18669;53.356;-1.464;2023-03-01T13:28:55;102037.41;;;10.84;100.00
29839;BME280;18669;53.356;-1.464;2023-03-01T13:37:02;102030.09;;;9.90;100.00
29839;BME280;18669;53.356;-1.464;2023-03-01T13:39:04;102033.44;;;9.62;100.00
29839;BME280;18669;53.356;-1.464;2023-03-01T13:44:21;102026.56;;;9.80;100.00
29839;BME280;18669;53.356;-1.464;2023-03-01T13:52:59;102011.66;;;9.80;100.00
29839;BME280;18669;53.356;-1.464;2023-03-01T13:54:59;102004.63;;;9.70;100.00
29839;BME280;18669;53.356;-1.464;2023-03-01T13:57:30;102009.84;;;9.72;100.00
29839;BME280;18669;53.356;-1.464;2023-03-01T13:59:58;102015.84;;;9.47;100.00
29839;BME280;18669;53.356;-1.464;2023-03-01T14:02:23;102001.78;;;9.39;100.00
29839;BME280;18669;53.356;-1.464;2023-03-01T14:04:56;102001.72;;;9.27;100.00
29839;BME280;18669;53.356;-1.464;2023-03-01T14:07:22;101995.56;;;9.24;100.00
29839;BME280;18669;53.356;-1.464;2023-03-01T14:09:56;101999.13;;;9.30;100.00
29839;BME280;18669;53.356;-1.464;2023-03-01T14:15:04;101983.25;;;9.19;100.00
29839;BME280;18669;53.356;-1.464;2023-03-01T14:17:44;101991.88;;;8.99;100.00
29839;BME280;18669;53.356;-1.464;2023-03-01T14:22:40;101986.59;;;8.94;100.00
29839;BME280;18669;53.356;-1.464;2023-03-01T14:25:17;101986.59;;;8.94;100.00
29839;BME280;18669;53.356;-1.464;2023-03-01T14:27:44;102000.63;;;8.98;100.00
29839;BME280;18669;53.356;-1.464;2023-03-01T14:30:19;101995.34;;;8.95;100.00
29839;BME280;18669;53.356;-1.464;2023-03-01T14:35:39;101975.16;;;8.88;100.00
29839;BME280;18669;53.356;-1.464;2023-03-01T14:38:04;101972.59;;;8.92;100.00
29839;BME280;18669;53.356;-1.464;2023-03-01T14:40:32;101964.06;;;9.26;100.00
29839;BME280;18669;53.356;-1.464;2023-03-01T14:42:59;101959.22;;;10.22;100.00
29839;BME280;18669;53.356;-1.464;2023-03-01T14:45:25;101952.28;;;10.74;100.00